Welcome to Des Moines Iowa Weather. I am an independent private personal weather station on the Northwest Side of Des Moines, Iowa. Just East of Windsor Heights and just West of Glendale . This site is also mobile friendly.

There are no active watches, warnings or advisories


Visit our other weather sites:

Historical Data

Weather Station Setup



Weather Underground History page Text

Daily Summary for March 1, 2018 Units:  Metric    English   Both
« Previous Day
Next Day »
Daily Weekly Monthly Yearly Custom
  High: Low: Average:
Temperature: 7.6 °C -2.6 °C 2.6 °C
Dew Point: -1 °C -6 °C -3 °C
Humidity: 85 % 51 % 68 %
Wind Speed: 17.7 km/h 0 km/h 5.5 km/h
Wind Gust: 27.4 km/h - -
Wind:- - NW
Pressure: 1028.7 hPa 1012.4 hPa -
Precipitation: 0 mm    
Historical Graphs
 
 
Tabular Data for March 1, 2018
Time Temperature Dew Point Pressure Wind Wind Speed Wind Gust Humidity Rainfall Rate (Hourly)
00:04 1.2 °C -1.1 °C 1012.4 hPa North 3.2 km/h 14.5 km/h 85 % 0 mm
00:10 1.2 °C -1 °C 1012.8 hPa NW 4.8 km/h 14.5 km/h 85 % 0 mm
00:15 1.2 °C -1 °C 1012.8 hPa NW 4.8 km/h 14.5 km/h 85 % 0 mm
00:16 1.2 °C -1.1 °C 1012.8 hPa NNW 6.4 km/h 14.5 km/h 85 % 0 mm
00:20 1.2 °C -1 °C 1012.8 hPa NW 4.8 km/h 14.5 km/h 85 % 0 mm
00:25 1.2 °C -1.1 °C 1012.8 hPa NW 6.4 km/h 16.1 km/h 85 % 0 mm
00:30 1.2 °C -1.1 °C 1012.8 hPa NW 6.4 km/h 16.1 km/h 85 % 0 mm
00:31 1.1 °C -1.1 °C 1012.8 hPa WNW 3.2 km/h 20.9 km/h 85 % 0 mm
00:35 1.2 °C -1.1 °C 1012.8 hPa NW 6.4 km/h 16.1 km/h 85 % 0 mm
00:40 1.1 °C -1.2 °C 1012.8 hPa NW 8 km/h 20.9 km/h 85 % 0 mm
00:45 1.1 °C -1.2 °C 1012.8 hPa NW 8 km/h 20.9 km/h 85 % 0 mm
00:50 1.1 °C -1.2 °C 1012.8 hPa NW 8 km/h 20.9 km/h 85 % 0 mm
00:51 1.1 °C -1.1 °C 1012.8 hPa NW 11.3 km/h 16.1 km/h 85 % 0 mm
00:55 1.1 °C -1.2 °C 1013.1 hPa NW 6.4 km/h 19.3 km/h 85 % 0 mm
01:00 1.1 °C -1.2 °C 1013.1 hPa NW 6.4 km/h 19.3 km/h 85 % 0 mm
01:01 1.1 °C -1.1 °C 1012.8 hPa NW 6.4 km/h 14.5 km/h 85 % 0 mm
01:05 1.1 °C -1.2 °C 1013.1 hPa NW 6.4 km/h 19.3 km/h 85 % 0 mm
01:10 1.1 °C -1.2 °C 1012.8 hPa NW 6.4 km/h 16.1 km/h 85 % 0 mm
01:15 1.1 °C -1.2 °C 1012.8 hPa NW 6.4 km/h 16.1 km/h 85 % 0 mm
01:16 1 °C -1.1 °C 1013.1 hPa WNW 16.1 km/h 22.5 km/h 85 % 0 mm
01:20 1.1 °C -1.2 °C 1012.8 hPa NW 6.4 km/h 16.1 km/h 85 % 0 mm
01:25 1 °C -1.2 °C 1013.1 hPa NW 8 km/h 17.7 km/h 85 % 0 mm
01:30 1 °C -1.2 °C 1013.1 hPa NW 8 km/h 17.7 km/h 85 % 0 mm
01:33 1.1 °C -1.1 °C 1013.4 hPa North 14.5 km/h 17.7 km/h 84 % 0 mm
01:35 1 °C -1.2 °C 1013.1 hPa NW 8 km/h 17.7 km/h 85 % 0 mm
01:40 1.1 °C -1.3 °C 1013.4 hPa WNW 8 km/h 22.5 km/h 84 % 0 mm
01:45 1.1 °C -1.3 °C 1013.4 hPa WNW 8 km/h 22.5 km/h 84 % 0 mm
01:47 1.1 °C -1.1 °C 1013.8 hPa NW 6.4 km/h 16.1 km/h 84 % 0 mm
01:50 1.1 °C -1.3 °C 1013.4 hPa WNW 8 km/h 22.5 km/h 84 % 0 mm
01:55 1 °C -1.4 °C 1013.8 hPa NW 6.4 km/h 17.7 km/h 84 % 0 mm
02:00 1 °C -1.4 °C 1013.8 hPa NW 6.4 km/h 17.7 km/h 84 % 0 mm
02:02 1.2 °C -1.1 °C 1013.4 hPa North 3.2 km/h 19.3 km/h 84 % 0 mm
02:05 1 °C -1.4 °C 1013.8 hPa NW 6.4 km/h 17.7 km/h 84 % 0 mm
02:10 1.1 °C -1.3 °C 1013.8 hPa NW 6.4 km/h 19.3 km/h 84 % 0 mm
02:15 1.1 °C -1.3 °C 1013.8 hPa NW 6.4 km/h 19.3 km/h 84 % 0 mm
02:17 1.2 °C -1.1 °C 1013.8 hPa NW 4.8 km/h 14.5 km/h 84 % 0 mm
02:20 1.1 °C -1.3 °C 1013.8 hPa NW 6.4 km/h 19.3 km/h 84 % 0 mm
02:25 1.2 °C -1.2 °C 1013.8 hPa NW 4.8 km/h 14.5 km/h 84 % 0 mm
02:30 1.2 °C -1.2 °C 1013.8 hPa NW 4.8 km/h 14.5 km/h 84 % 0 mm
02:32 1 °C -1.7 °C 1013.8 hPa NW 6.4 km/h 14.5 km/h 83 % 0 mm
02:35 1.2 °C -1.2 °C 1013.8 hPa NW 4.8 km/h 14.5 km/h 84 % 0 mm
02:40 1.1 °C -1.5 °C 1013.8 hPa NW 4.8 km/h 14.5 km/h 83 % 0 mm
02:45 1.1 °C -1.5 °C 1013.8 hPa NW 4.8 km/h 14.5 km/h 83 % 0 mm
02:47 0.8 °C -1.7 °C 1014.1 hPa WNW 8 km/h 16.1 km/h 83 % 0 mm
02:50 1.1 °C -1.5 °C 1013.8 hPa NW 4.8 km/h 14.5 km/h 83 % 0 mm
02:55 0.8 °C -1.7 °C 1014.1 hPa NW 6.4 km/h 17.7 km/h 83 % 0 mm
03:00 0.8 °C -1.7 °C 1014.1 hPa NW 6.4 km/h 17.7 km/h 83 % 0 mm
03:02 0.6 °C -2.2 °C 1013.8 hPa North 6.4 km/h 17.7 km/h 83 % 0 mm
03:05 0.8 °C -1.7 °C 1014.1 hPa NW 6.4 km/h 17.7 km/h 83 % 0 mm
03:10 0.6 °C -1.9 °C 1014.1 hPa NW 4.8 km/h 17.7 km/h 83 % 0 mm
03:15 0.6 °C -1.9 °C 1014.1 hPa NW 4.8 km/h 17.7 km/h 83 % 0 mm
03:20 0.6 °C -1.9 °C 1014.1 hPa NW 4.8 km/h 17.7 km/h 83 % 0 mm
03:23 0.3 °C -2.2 °C 1013.8 hPa NW 8 km/h 20.9 km/h 83 % 0 mm
03:25 0.4 °C -2.2 °C 1013.8 hPa NW 4.8 km/h 14.5 km/h 83 % 0 mm
03:30 0.4 °C -2.2 °C 1013.8 hPa NW 4.8 km/h 14.5 km/h 83 % 0 mm
03:32 0.3 °C -2.2 °C 1013.8 hPa North 12.9 km/h 17.7 km/h 83 % 0 mm
03:35 0.4 °C -2.2 °C 1013.8 hPa NW 4.8 km/h 14.5 km/h 83 % 0 mm
03:40 0.3 °C -2.3 °C 1013.8 hPa NW 6.4 km/h 20.9 km/h 83 % 0 mm
03:45 0.3 °C -2.3 °C 1013.8 hPa NW 6.4 km/h 20.9 km/h 83 % 0 mm
03:47 0.3 °C -2.8 °C 1014.1 hPa North 3.2 km/h 19.3 km/h 81 % 0 mm
03:50 0.3 °C -2.3 °C 1013.8 hPa NW 6.4 km/h 20.9 km/h 83 % 0 mm
03:55 0.3 °C -2.4 °C 1013.8 hPa NW 6.4 km/h 19.3 km/h 82 % 0 mm
04:00 0.3 °C -2.4 °C 1013.8 hPa NW 6.4 km/h 19.3 km/h 82 % 0 mm
04:02 0.2 °C -2.8 °C 1014.4 hPa NW 8 km/h 16.1 km/h 80 % 0 mm
04:05 0.3 °C -2.4 °C 1013.8 hPa NW 6.4 km/h 19.3 km/h 82 % 0 mm
04:10 0.3 °C -2.8 °C 1014.4 hPa NW 6.4 km/h 16.1 km/h 80 % 0 mm
04:15 0.3 °C -2.8 °C 1014.4 hPa NW 6.4 km/h 16.1 km/h 80 % 0 mm
04:17 0.2 °C -3.3 °C 1014.8 hPa NW 9.7 km/h 22.5 km/h 78 % 0 mm
04:20 0.3 °C -2.8 °C 1014.4 hPa NW 6.4 km/h 16.1 km/h 80 % 0 mm
04:25 0.2 °C -3 °C 1014.4 hPa NW 6.4 km/h 20.9 km/h 79 % 0 mm
04:30 0.2 °C -3 °C 1014.4 hPa NW 6.4 km/h 20.9 km/h 79 % 0 mm
04:32 0.2 °C -3.3 °C 1014.8 hPa North 8 km/h 17.7 km/h 77 % 0 mm
04:35 0.2 °C -3 °C 1014.4 hPa NW 6.4 km/h 20.9 km/h 79 % 0 mm
04:40 0.2 °C -3.3 °C 1014.8 hPa NW 8 km/h 22.5 km/h 77 % 0 mm
04:45 0.2 °C -3.3 °C 1014.8 hPa NW 8 km/h 22.5 km/h 77 % 0 mm
04:49 0.2 °C -3.9 °C 1015.1 hPa North 6.4 km/h 16.1 km/h 75 % 0 mm
04:50 0.2 °C -3.3 °C 1014.8 hPa NW 8 km/h 22.5 km/h 77 % 0 mm
04:55 0.2 °C -3.5 °C 1015.1 hPa NW 6.4 km/h 17.7 km/h 76 % 0 mm
05:00 0.2 °C -3.5 °C 1015.1 hPa NW 6.4 km/h 17.7 km/h 76 % 0 mm
05:02 0.2 °C -3.9 °C 1015.1 hPa North 6.4 km/h 17.7 km/h 75 % 0 mm
05:05 0.2 °C -3.5 °C 1015.1 hPa NW 6.4 km/h 17.7 km/h 76 % 0 mm
05:10 0.2 °C -3.7 °C 1015.1 hPa NW 6.4 km/h 17.7 km/h 75 % 0 mm
05:15 0.2 °C -3.7 °C 1015.1 hPa NW 6.4 km/h 17.7 km/h 75 % 0 mm
05:17 0.2 °C -3.9 °C 1015.1 hPa NNW 3.2 km/h 17.7 km/h 75 % 0 mm
05:20 0.2 °C -3.7 °C 1015.1 hPa NW 6.4 km/h 17.7 km/h 75 % 0 mm
05:25 0.3 °C -3.6 °C 1015.5 hPa NW 8 km/h 20.9 km/h 75 % 0 mm
05:30 0.3 °C -3.6 °C 1015.5 hPa NW 8 km/h 20.9 km/h 75 % 0 mm
05:35 0.2 °C -3.9 °C 1015.8 hPa NW 6.4 km/h 17.7 km/h 75 % 0 mm
05:40 0.2 °C -3.9 °C 1015.5 hPa NW 6.4 km/h 20.9 km/h 74 % 0 mm
05:45 0.2 °C -3.9 °C 1015.5 hPa NW 6.4 km/h 20.9 km/h 74 % 0 mm
05:47 0.2 °C -3.9 °C 1016.1 hPa North 4.8 km/h 17.7 km/h 74 % 0 mm
05:50 0.2 °C -3.9 °C 1015.5 hPa NW 6.4 km/h 20.9 km/h 74 % 0 mm
05:55 0.2 °C -3.9 °C 1016.1 hPa NW 6.4 km/h 17.7 km/h 74 % 0 mm
06:00 0.2 °C -3.9 °C 1016.1 hPa NW 6.4 km/h 17.7 km/h 74 % 0 mm
06:02 0.1 °C -4.4 °C 1016.5 hPa WNW 6.4 km/h 16.1 km/h 73 % 0 mm
06:05 0.2 °C -3.9 °C 1016.1 hPa NW 6.4 km/h 17.7 km/h 74 % 0 mm
06:10 0.1 °C -4.2 °C 1016.5 hPa NW 6.4 km/h 17.7 km/h 73 % 0 mm
06:15 0.1 °C -4.2 °C 1016.5 hPa NW 6.4 km/h 17.7 km/h 73 % 0 mm
06:17 0 °C -4.4 °C 1016.8 hPa WNW 3.2 km/h 16.1 km/h 73 % 0 mm
06:20 0.1 °C -4.2 °C 1016.5 hPa NW 6.4 km/h 17.7 km/h 73 % 0 mm
06:25 0.1 °C -4.2 °C 1016.8 hPa NW 4.8 km/h 14.5 km/h 73 % 0 mm
06:30 0.1 °C -4.2 °C 1016.8 hPa NW 4.8 km/h 14.5 km/h 73 % 0 mm
06:32 -0.3 °C -4.4 °C 1017.2 hPa NW 8 km/h 14.5 km/h 75 % 0 mm
06:35 0.1 °C -4.2 °C 1016.8 hPa NW 4.8 km/h 14.5 km/h 73 % 0 mm
06:40 -0.2 °C -4.1 °C 1017.2 hPa WNW 4.8 km/h 16.1 km/h 75 % 0 mm
06:45 -0.2 °C -4.1 °C 1017.2 hPa WNW 4.8 km/h 16.1 km/h 75 % 0 mm
06:47 -0.6 °C -4.4 °C 1017.5 hPa WNW 16.1 km/h 16.1 km/h 74 % 0 mm
06:50 -0.2 °C -4.1 °C 1017.2 hPa WNW 4.8 km/h 16.1 km/h 75 % 0 mm
06:55 -0.6 °C -4.4 °C 1017.5 hPa NW 6.4 km/h 17.7 km/h 75 % 0 mm
07:00 -0.6 °C -4.4 °C 1017.5 hPa NW 6.4 km/h 17.7 km/h 75 % 0 mm
07:04 -0.7 °C -5 °C 1017.8 hPa NW 4.8 km/h 12.9 km/h 72 % 0 mm
07:05 -0.6 °C -4.4 °C 1017.5 hPa NW 6.4 km/h 17.7 km/h 75 % 0 mm
07:10 -0.7 °C -4.9 °C 1017.8 hPa NW 4.8 km/h 16.1 km/h 73 % 0 mm
07:15 -0.7 °C -4.9 °C 1017.8 hPa NW 4.8 km/h 16.1 km/h 73 % 0 mm
07:17 -0.8 °C -5 °C 1017.8 hPa NNW 6.4 km/h 16.1 km/h 72 % 0 mm
07:20 -0.7 °C -4.9 °C 1017.8 hPa NW 4.8 km/h 16.1 km/h 73 % 0 mm
07:25 -0.8 °C -5.2 °C 1017.8 hPa NW 4.8 km/h 12.9 km/h 72 % 0 mm
07:30 -0.8 °C -5.2 °C 1017.8 hPa NW 4.8 km/h 12.9 km/h 72 % 0 mm
07:35 -0.8 °C -5.2 °C 1017.8 hPa NW 4.8 km/h 12.9 km/h 72 % 0 mm
07:36 -0.6 °C -5.6 °C 1018.2 hPa WNW 3.2 km/h 12.9 km/h 69 % 0 mm
07:40 -0.7 °C -5.6 °C 1018.2 hPa NNW 4.8 km/h 16.1 km/h 69 % 0 mm
07:45 -0.7 °C -5.6 °C 1018.2 hPa NNW 4.8 km/h 16.1 km/h 69 % 0 mm
07:48 -0.2 °C -5.6 °C 1018.5 hPa NW 4.8 km/h 16.1 km/h 67 % 0 mm
07:50 -0.7 °C -5.6 °C 1018.2 hPa NNW 4.8 km/h 16.1 km/h 69 % 0 mm
07:55 -0.3 °C -5.7 °C 1018.8 hPa WNW 4.8 km/h 16.1 km/h 67 % 0 mm
08:00 -0.3 °C -5.7 °C 1018.8 hPa WNW 4.8 km/h 16.1 km/h 67 % 0 mm
08:03 0.1 °C -5.6 °C 1018.8 hPa NW 6.4 km/h 16.1 km/h 67 % 0 mm
08:05 -0.3 °C -5.7 °C 1018.8 hPa WNW 4.8 km/h 16.1 km/h 67 % 0 mm
08:10 0 °C -5.4 °C 1018.8 hPa NW 6.4 km/h 16.1 km/h 67 % 0 mm
08:15 0 °C -5.4 °C 1018.8 hPa NW 6.4 km/h 16.1 km/h 67 % 0 mm
08:19 0.3 °C -5.6 °C 1019.2 hPa North 1.6 km/h 14.5 km/h 66 % 0 mm
08:20 0 °C -5.4 °C 1018.8 hPa NW 6.4 km/h 16.1 km/h 67 % 0 mm
08:25 0.3 °C -5.3 °C 1019.2 hPa NW 4.8 km/h 14.5 km/h 66 % 0 mm
08:30 0.3 °C -5.3 °C 1019.2 hPa NW 4.8 km/h 14.5 km/h 66 % 0 mm
08:33 0.7 °C -5 °C 1019.2 hPa NW 4.8 km/h 14.5 km/h 65 % 0 mm
08:35 0.3 °C -5.3 °C 1019.2 hPa NW 4.8 km/h 14.5 km/h 66 % 0 mm
08:40 0.7 °C -4.9 °C 1019.2 hPa North 4.8 km/h 14.5 km/h 66 % 0 mm
08:45 0.7 °C -4.9 °C 1019.2 hPa North 4.8 km/h 14.5 km/h 66 % 0 mm
08:48 1.3 °C -5.6 °C 1019.2 hPa North 4.8 km/h 19.3 km/h 61 % 0 mm
08:50 0.7 °C -4.9 °C 1019.2 hPa North 4.8 km/h 14.5 km/h 66 % 0 mm
08:55 1.2 °C -5.5 °C 1019.2 hPa NW 4.8 km/h 19.3 km/h 61 % 0 mm
09:00 1.2 °C -5.5 °C 1019.2 hPa NW 4.8 km/h 19.3 km/h 61 % 0 mm
09:03 1.9 °C -5.6 °C 1019.5 hPa North 17.7 km/h 19.3 km/h 58 % 0 mm
09:05 1.2 °C -5.5 °C 1019.2 hPa NW 4.8 km/h 19.3 km/h 61 % 0 mm
09:10 2.2 °C -5.7 °C 1019.5 hPa NNW 6.4 km/h 8 km/h 56 % 0 mm
09:15 2.3 °C -6 °C 1019.5 hPa NW 8 km/h 16.1 km/h 54 % 0 mm
09:18 2.5 °C -5.6 °C 1019.5 hPa NW 4.8 km/h 17.7 km/h 55 % 0 mm
09:20 2.5 °C -5.6 °C 1019.5 hPa NW 6.4 km/h 6.4 km/h 55 % 0 mm
09:25 2.7 °C -4.9 °C 1019.9 hPa NW 4.8 km/h 6.4 km/h 57 % 0 mm
09:30 2.3 °C -6 °C 1019.5 hPa NW 8 km/h 24.1 km/h 54 % 0 mm
09:33 3.1 °C -5 °C 1020.2 hPa WNW 3.2 km/h 12.9 km/h 57 % 0 mm
09:35 2.3 °C -6 °C 1019.5 hPa NW 8 km/h 24.1 km/h 54 % 0 mm
09:40 2.3 °C -6 °C 1019.5 hPa NW 8 km/h 24.1 km/h 54 % 0 mm
09:45 3 °C -4.7 °C 1019.9 hPa NW 4.8 km/h 11.3 km/h 57 % 0 mm
09:49 3.4 °C -3.9 °C 1020.2 hPa West 6.4 km/h 14.5 km/h 59 % 0 mm
09:50 3 °C -4.7 °C 1019.9 hPa NW 4.8 km/h 11.3 km/h 57 % 0 mm
09:55 3 °C -4.7 °C 1019.9 hPa NW 4.8 km/h 11.3 km/h 57 % 0 mm
10:00 3.2 °C -4.4 °C 1020.2 hPa NW 6.4 km/h 14.5 km/h 57 % 0 mm
10:04 3.7 °C -3.9 °C 1020.5 hPa WNW 6.4 km/h 14.5 km/h 59 % 0 mm
10:05 3.2 °C -4.4 °C 1020.2 hPa NW 6.4 km/h 14.5 km/h 57 % 0 mm
10:10 3.2 °C -4.4 °C 1020.2 hPa NW 6.4 km/h 14.5 km/h 57 % 0 mm
10:15 3.7 °C -3.8 °C 1020.5 hPa NW 4.8 km/h 12.9 km/h 58 % 0 mm
10:19 4.3 °C -3.3 °C 1020.9 hPa NNW 6.4 km/h 16.1 km/h 57 % 0 mm
10:20 3.7 °C -3.8 °C 1020.5 hPa NW 4.8 km/h 12.9 km/h 58 % 0 mm
10:25 3.7 °C -3.8 °C 1020.5 hPa NW 4.8 km/h 12.9 km/h 58 % 0 mm
10:30 4.1 °C -3.4 °C 1020.9 hPa WNW 6.4 km/h 16.1 km/h 58 % 0 mm
10:34 5.1 °C -3.9 °C 1020.9 hPa WNW 8 km/h 16.1 km/h 53 % 0 mm
10:35 4.1 °C -3.4 °C 1020.9 hPa WNW 6.4 km/h 16.1 km/h 58 % 0 mm
10:40 4.1 °C -3.4 °C 1020.9 hPa WNW 6.4 km/h 16.1 km/h 58 % 0 mm
10:45 4.8 °C -2.8 °C 1020.9 hPa NW 6.4 km/h 14.5 km/h 58 % 0 mm
10:49 5.3 °C -3.9 °C 1021.2 hPa NW 6.4 km/h 14.5 km/h 53 % 0 mm
10:50 4.8 °C -2.8 °C 1020.9 hPa NW 6.4 km/h 14.5 km/h 58 % 0 mm
10:55 4.8 °C -2.8 °C 1020.9 hPa NW 6.4 km/h 14.5 km/h 58 % 0 mm
11:00 5.3 °C -3.8 °C 1020.9 hPa WNW 8 km/h 19.3 km/h 52 % 0 mm
11:04 5.2 °C -3.3 °C 1021.2 hPa NW 6.4 km/h 16.1 km/h 54 % 0 mm
11:05 5.3 °C -3.8 °C 1020.9 hPa WNW 8 km/h 19.3 km/h 52 % 0 mm
11:10 5.3 °C -3.8 °C 1020.9 hPa WNW 8 km/h 19.3 km/h 52 % 0 mm
11:15 5.2 °C -3.6 °C 1021.2 hPa NW 6.4 km/h 16.1 km/h 53 % 0 mm
11:19 5.4 °C -3.9 °C 1021.2 hPa West 9.7 km/h 22.5 km/h 51 % 0 mm
11:20 5.2 °C -3.6 °C 1021.2 hPa NW 6.4 km/h 16.1 km/h 53 % 0 mm
11:25 5.2 °C -3.6 °C 1021.2 hPa NW 6.4 km/h 16.1 km/h 53 % 0 mm
11:30 5.4 °C -3.4 °C 1021.2 hPa NW 6.4 km/h 17.7 km/h 53 % 0 mm
11:34 5.7 °C -3.9 °C 1021.6 hPa West 4.8 km/h 20.9 km/h 51 % 0 mm
11:35 5.4 °C -3.4 °C 1021.2 hPa NW 6.4 km/h 17.7 km/h 53 % 0 mm
11:40 5.4 °C -3.4 °C 1021.2 hPa NW 6.4 km/h 17.7 km/h 53 % 0 mm
11:45 5.5 °C -3.3 °C 1021.6 hPa NW 8 km/h 22.5 km/h 53 % 0 mm
11:49 6.2 °C -2.8 °C 1021.6 hPa NW 6.4 km/h 17.7 km/h 53 % 0 mm
11:50 5.5 °C -3.3 °C 1021.6 hPa NW 8 km/h 22.5 km/h 53 % 0 mm
11:55 5.5 °C -3.3 °C 1021.6 hPa NW 8 km/h 22.5 km/h 53 % 0 mm
12:00 6.2 °C -2.9 °C 1021.6 hPa NW 8 km/h 20.9 km/h 52 % 0 mm
12:04 6.1 °C -2.2 °C 1021.9 hPa NW 3.2 km/h 19.3 km/h 56 % 0 mm
12:05 6.2 °C -2.9 °C 1021.6 hPa NW 8 km/h 20.9 km/h 52 % 0 mm
12:10 6.2 °C -2.9 °C 1021.6 hPa NW 8 km/h 20.9 km/h 52 % 0 mm
12:15 6.2 °C -2.7 °C 1021.9 hPa NW 8 km/h 24.1 km/h 53 % 0 mm
12:19 6.6 °C -2.2 °C 1021.9 hPa WNW 4.8 km/h 19.3 km/h 55 % 0 mm
12:20 6.2 °C -2.7 °C 1021.9 hPa NW 8 km/h 24.1 km/h 53 % 0 mm
12:25 6.2 °C -2.7 °C 1021.9 hPa NW 8 km/h 24.1 km/h 53 % 0 mm
12:30 6.6 °C -2.1 °C 1021.9 hPa NW 6.4 km/h 19.3 km/h 54 % 0 mm
12:34 6.8 °C -1.7 °C 1021.9 hPa NNW 3.2 km/h 17.7 km/h 55 % 0 mm
12:35 6.6 °C -2.1 °C 1021.9 hPa NW 6.4 km/h 19.3 km/h 54 % 0 mm
12:40 6.6 °C -2.1 °C 1021.9 hPa NW 6.4 km/h 19.3 km/h 54 % 0 mm
12:45 6.7 °C -1.2 °C 1022.2 hPa NW 8 km/h 19.3 km/h 57 % 0 mm
12:49 6.5 °C -2.2 °C 1022.2 hPa NW 3.2 km/h 20.9 km/h 54 % 0 mm
12:50 6.7 °C -1.2 °C 1022.2 hPa NW 8 km/h 19.3 km/h 57 % 0 mm
12:55 6.7 °C -1.2 °C 1022.2 hPa NW 8 km/h 19.3 km/h 57 % 0 mm
13:00 6.4 °C -2.2 °C 1022.2 hPa NW 8 km/h 22.5 km/h 54 % 0 mm
13:04 6.8 °C -1.1 °C 1022.2 hPa NW 9.7 km/h 22.5 km/h 57 % 0 mm
13:05 6.4 °C -2.2 °C 1022.2 hPa NW 8 km/h 22.5 km/h 54 % 0 mm
13:10 6.4 °C -2.2 °C 1022.2 hPa NW 8 km/h 22.5 km/h 54 % 0 mm
13:15 6.8 °C -1.4 °C 1022.2 hPa NW 8 km/h 24.1 km/h 56 % 0 mm
13:19 7.4 °C -1.7 °C 1022.6 hPa NW 4.8 km/h 19.3 km/h 54 % 0 mm
13:20 6.8 °C -1.4 °C 1022.2 hPa NW 8 km/h 24.1 km/h 56 % 0 mm
13:25 6.8 °C -1.4 °C 1022.2 hPa NW 8 km/h 24.1 km/h 56 % 0 mm
13:30 7.1 °C -1.9 °C 1022.2 hPa WNW 8 km/h 19.3 km/h 53 % 0 mm
13:34 7.4 °C -1.7 °C 1022.6 hPa WNW 8 km/h 27.4 km/h 53 % 0 mm
13:35 7.1 °C -1.9 °C 1022.2 hPa WNW 8 km/h 19.3 km/h 53 % 0 mm
13:40 7.1 °C -1.9 °C 1022.2 hPa WNW 8 km/h 19.3 km/h 53 % 0 mm
13:45 7.2 °C -2.3 °C 1022.6 hPa NW 8 km/h 19.3 km/h 51 % 0 mm
13:49 7.2 °C -1.7 °C 1022.9 hPa NW 8 km/h 19.3 km/h 54 % 0 mm
13:50 7.2 °C -2.3 °C 1022.6 hPa NW 8 km/h 19.3 km/h 51 % 0 mm
13:55 7.2 °C -2.3 °C 1022.6 hPa NW 8 km/h 19.3 km/h 51 % 0 mm
14:00 7.3 °C -1.4 °C 1022.9 hPa WNW 8 km/h 27.4 km/h 54 % 0 mm
14:05 7.6 °C -1.7 °C 1022.9 hPa WNW 4.8 km/h 20.9 km/h 53 % 0 mm
14:10 7.3 °C -1.4 °C 1022.9 hPa WNW 8 km/h 27.4 km/h 54 % 0 mm
14:15 7.4 °C -1.3 °C 1022.9 hPa NW 9.7 km/h 25.7 km/h 54 % 0 mm
14:19 7.2 °C -1.7 °C 1022.9 hPa WNW 12.9 km/h 22.5 km/h 54 % 0 mm
14:20 7.4 °C -1.3 °C 1022.9 hPa NW 9.7 km/h 25.7 km/h 54 % 0 mm
14:25 7.4 °C -1.3 °C 1022.9 hPa NW 9.7 km/h 25.7 km/h 54 % 0 mm
14:30 7.3 °C -1.9 °C 1022.9 hPa WNW 8 km/h 19.3 km/h 52 % 0 mm
14:35 7.3 °C -1.9 °C 1022.9 hPa WNW 8 km/h 19.3 km/h 52 % 0 mm
14:37 7.1 °C -2.2 °C 1022.9 hPa NW 4.8 km/h 22.5 km/h 53 % 0 mm
14:40 7.3 °C -1.9 °C 1022.9 hPa WNW 8 km/h 19.3 km/h 52 % 0 mm
14:45 7.3 °C -1.6 °C 1023.2 hPa NW 8 km/h 22.5 km/h 53 % 0 mm
14:49 7 °C -2.2 °C 1022.9 hPa NNW 3.2 km/h 16.1 km/h 53 % 0 mm
14:50 7.3 °C -1.6 °C 1023.2 hPa NW 8 km/h 22.5 km/h 53 % 0 mm
14:55 7.3 °C -1.6 °C 1023.2 hPa NW 8 km/h 22.5 km/h 53 % 0 mm
15:00 7.1 °C -1.9 °C 1023.2 hPa NW 8 km/h 17.7 km/h 53 % 0 mm
15:04 6.8 °C -2.2 °C 1023.2 hPa NNW 3.2 km/h 19.3 km/h 53 % 0 mm
15:05 7.1 °C -1.9 °C 1023.2 hPa NW 8 km/h 17.7 km/h 53 % 0 mm
15:10 7.1 °C -1.9 °C 1023.2 hPa NW 8 km/h 17.7 km/h 53 % 0 mm
15:15 6.9 °C -1.9 °C 1023.2 hPa WNW 6.4 km/h 17.7 km/h 53 % 0 mm
15:20 6.9 °C -1.9 °C 1023.2 hPa WNW 6.4 km/h 17.7 km/h 53 % 0 mm
15:25 6.7 °C -2.2 °C 1023.6 hPa WNW 3.2 km/h 19.3 km/h 53 % 0 mm
15:30 6.8 °C -2.1 °C 1023.6 hPa NW 6.4 km/h 17.7 km/h 53 % 0 mm
15:35 6.8 °C -2.1 °C 1023.6 hPa NW 6.4 km/h 17.7 km/h 53 % 0 mm
15:36 6.8 °C -1.7 °C 1023.6 hPa NW 6.4 km/h 14.5 km/h 55 % 0 mm
15:40 6.8 °C -2.1 °C 1023.6 hPa NW 6.4 km/h 17.7 km/h 53 % 0 mm
15:45 6.6 °C -2 °C 1023.6 hPa WNW 8 km/h 19.3 km/h 54 % 0 mm
15:49 6.5 °C -2.2 °C 1023.6 hPa NNW 6.4 km/h 19.3 km/h 54 % 0 mm
15:50 6.6 °C -2 °C 1023.6 hPa WNW 8 km/h 19.3 km/h 54 % 0 mm
15:55 6.6 °C -2 °C 1023.6 hPa WNW 8 km/h 19.3 km/h 54 % 0 mm
16:00 6.8 °C -2.1 °C 1023.6 hPa NW 4.8 km/h 14.5 km/h 53 % 0 mm
16:04 6.3 °C -2.8 °C 1023.9 hPa NW 14.5 km/h 19.3 km/h 53 % 0 mm
16:05 6.8 °C -2.1 °C 1023.6 hPa NW 4.8 km/h 14.5 km/h 53 % 0 mm
16:10 6.8 °C -2.1 °C 1023.6 hPa NW 4.8 km/h 14.5 km/h 53 % 0 mm
16:15 6.4 °C -2.2 °C 1023.9 hPa NW 8 km/h 19.3 km/h 54 % 0 mm
16:19 6.2 °C -2.2 °C 1024.3 hPa NW 4.8 km/h 17.7 km/h 55 % 0 mm
16:20 6.4 °C -2.2 °C 1023.9 hPa NW 8 km/h 19.3 km/h 54 % 0 mm
16:25 6.4 °C -2.2 °C 1023.9 hPa NW 8 km/h 19.3 km/h 54 % 0 mm
16:30 6.1 °C -2.2 °C 1024.3 hPa NW 6.4 km/h 17.7 km/h 55 % 0 mm
16:35 6.2 °C -1.7 °C 1024.3 hPa NW 12.9 km/h 16.1 km/h 57 % 0 mm
16:40 6.1 °C -2.2 °C 1024.3 hPa NW 6.4 km/h 17.7 km/h 55 % 0 mm
16:45 6.2 °C -1.7 °C 1024.3 hPa WNW 6.4 km/h 17.7 km/h 57 % 0 mm
16:50 5.7 °C -2.8 °C 1024.6 hPa West 9.7 km/h 16.1 km/h 56 % 0 mm
16:55 6.2 °C -1.7 °C 1024.3 hPa WNW 6.4 km/h 17.7 km/h 57 % 0 mm
17:00 5.9 °C -2.2 °C 1024.6 hPa NW 6.4 km/h 14.5 km/h 56 % 0 mm
17:05 5.4 °C -2.2 °C 1024.9 hPa NW 6.4 km/h 17.7 km/h 58 % 0 mm
17:10 5.9 °C -2.2 °C 1024.6 hPa NW 6.4 km/h 14.5 km/h 56 % 0 mm
17:15 5.5 °C -2.3 °C 1024.6 hPa WNW 6.4 km/h 16.1 km/h 57 % 0 mm
17:20 5.2 °C -2.8 °C 1024.9 hPa NW 11.3 km/h 16.1 km/h 58 % 0 mm
17:25 5.5 °C -2.3 °C 1024.6 hPa WNW 6.4 km/h 16.1 km/h 57 % 0 mm
17:30 5.3 °C -2.3 °C 1024.9 hPa NW 4.8 km/h 16.1 km/h 58 % 0 mm
17:35 5 °C -2.8 °C 1024.9 hPa WNW 1.6 km/h 14.5 km/h 59 % 0 mm
17:40 5.3 °C -2.3 °C 1024.9 hPa NW 4.8 km/h 16.1 km/h 58 % 0 mm
17:45 5.1 °C -2.5 °C 1025.3 hPa NW 6.4 km/h 17.7 km/h 58 % 0 mm
17:50 4.9 °C -1.7 °C 1025.3 hPa WNW 8 km/h 8 km/h 62 % 0 mm
17:55 5.1 °C -2.5 °C 1025.3 hPa NW 6.4 km/h 17.7 km/h 58 % 0 mm
18:00 4.9 °C -1.9 °C 1024.9 hPa NW 3.2 km/h 14.5 km/h 61 % 0 mm
18:05 4.6 °C -2.2 °C 1025.3 hPa WNW 3.2 km/h 14.5 km/h 62 % 0 mm
18:10 4.9 °C -1.9 °C 1024.9 hPa NW 3.2 km/h 14.5 km/h 61 % 0 mm
18:15 4.7 °C -2 °C 1025.3 hPa NW 3.2 km/h 9.7 km/h 62 % 0 mm
18:20 4.2 °C -2.8 °C 1025.6 hPa NNW 3.2 km/h 8 km/h 62 % 0 mm
18:25 4.7 °C -2 °C 1025.3 hPa NW 3.2 km/h 9.7 km/h 62 % 0 mm
18:30 4.3 °C -2.3 °C 1025.3 hPa NW 3.2 km/h 14.5 km/h 62 % 0 mm
18:35 3.8 °C -2.8 °C 1025.6 hPa NW 3.2 km/h 8 km/h 64 % 0 mm
18:40 4.3 °C -2.3 °C 1025.3 hPa NW 3.2 km/h 14.5 km/h 62 % 0 mm
18:45 3.9 °C -2.5 °C 1025.6 hPa NNW 1.6 km/h 8 km/h 63 % 0 mm
18:50 3.4 °C -2.8 °C 1026 hPa Calm   3.2 km/h 65 % 0 mm
18:55 3.9 °C -2.5 °C 1025.6 hPa NNW 1.6 km/h 8 km/h 63 % 0 mm
19:00 3.6 °C -2.4 °C 1025.6 hPa WNW 1.6 km/h 8 km/h 65 % 0 mm
19:05 3 °C -2.8 °C 1026 hPa Calm     66 % 0 mm
19:10 3.6 °C -2.4 °C 1025.6 hPa WNW 1.6 km/h 8 km/h 65 % 0 mm
19:15 3.2 °C -2.8 °C 1026 hPa Calm     65 % 0 mm
19:20 2.6 °C -2.8 °C 1026 hPa NW 1.6 km/h 6.4 km/h 69 % 0 mm
19:25 3.2 °C -2.8 °C 1026 hPa Calm     65 % 0 mm
19:30 2.7 °C -2.8 °C 1026 hPa Calm   4.8 km/h 67 % 0 mm
19:35 2.2 °C -2.8 °C 1026 hPa NW 1.6 km/h 9.7 km/h 71 % 0 mm
19:40 2.7 °C -2.8 °C 1026 hPa Calm   4.8 km/h 67 % 0 mm
19:45 2.3 °C -2.4 °C 1026 hPa NW 3.2 km/h 8 km/h 71 % 0 mm
19:50 2.2 °C -2.2 °C 1026.3 hPa North 4.8 km/h 6.4 km/h 72 % 0 mm
19:55 2.3 °C -2.4 °C 1026 hPa NW 3.2 km/h 8 km/h 71 % 0 mm
20:00 2.2 °C -2.3 °C 1026.3 hPa NW 3.2 km/h 11.3 km/h 72 % 0 mm
20:05 1.9 °C -2.2 °C 1026.6 hPa WNW 1.6 km/h 11.3 km/h 73 % 0 mm
20:10 2.2 °C -2.3 °C 1026.3 hPa NW 3.2 km/h 11.3 km/h 72 % 0 mm
20:15 2.1 °C -2.4 °C 1026.6 hPa NNW 3.2 km/h 6.4 km/h 72 % 0 mm
20:20 1.7 °C -2.8 °C 1026.6 hPa WNW 1.6 km/h 6.4 km/h 73 % 0 mm
20:25 2.1 °C -2.4 °C 1026.6 hPa NNW 3.2 km/h 6.4 km/h 72 % 0 mm
20:30 1.8 °C -2.6 °C 1026.6 hPa WNW 3.2 km/h 11.3 km/h 73 % 0 mm
20:35 1.4 °C -2.8 °C 1027 hPa Calm   4.8 km/h 74 % 0 mm
20:40 1.8 °C -2.6 °C 1026.6 hPa WNW 3.2 km/h 11.3 km/h 73 % 0 mm
20:45 1.6 °C -2.8 °C 1027 hPa WNW 1.6 km/h 4.8 km/h 73 % 0 mm
20:50 1.2 °C -2.8 °C 1027.3 hPa Calm   3.2 km/h 74 % 0 mm
20:55 1.6 °C -2.8 °C 1027 hPa WNW 1.6 km/h 4.8 km/h 73 % 0 mm
21:00 1.3 °C -2.8 °C 1027.3 hPa Calm   3.2 km/h 74 % 0 mm
21:05 1.3 °C -2.8 °C 1027.3 hPa Calm   3.2 km/h 74 % 0 mm
21:06 0.8 °C -3.3 °C 1027.3 hPa Calm     75 % 0 mm
21:10 1.3 °C -2.8 °C 1027.3 hPa Calm   3.2 km/h 74 % 0 mm
21:15 0.9 °C -3 °C 1027.3 hPa Calm   3.2 km/h 75 % 0 mm
21:20 0.5 °C -3.3 °C 1027.3 hPa Calm   4.8 km/h 76 % 0 mm
21:25 0.9 °C -3 °C 1027.3 hPa Calm   3.2 km/h 75 % 0 mm
21:30 0.6 °C -3.1 °C 1027.7 hPa Calm   4.8 km/h 76 % 0 mm
21:35 0.1 °C -3.3 °C 1027.7 hPa Calm   1.6 km/h 77 % 0 mm
21:40 0.6 °C -3.1 °C 1027.7 hPa Calm   4.8 km/h 76 % 0 mm
21:45 0.2 °C -3.3 °C 1027.7 hPa Calm   1.6 km/h 77 % 0 mm
21:50 -0.2 °C -3.9 °C 1027.7 hPa Calm     78 % 0 mm
21:55 0.2 °C -3.3 °C 1027.7 hPa Calm   1.6 km/h 77 % 0 mm
22:00 -0.1 °C -3.6 °C 1027.7 hPa Calm   1.6 km/h 77 % 0 mm
22:05 -0.5 °C -3.9 °C 1028.3 hPa Calm     79 % 0 mm
22:10 -0.1 °C -3.6 °C 1027.7 hPa Calm   1.6 km/h 77 % 0 mm
22:15 -0.4 °C -3.6 °C 1028 hPa Calm     79 % 0 mm
22:20 -0.8 °C -3.9 °C 1028.3 hPa Calm     79 % 0 mm
22:25 -0.4 °C -3.6 °C 1028 hPa Calm     79 % 0 mm
22:30 -0.7 °C -3.8 °C 1028.3 hPa Calm     79 % 0 mm
22:35 -1.2 °C -4.4 °C 1028.3 hPa Calm     80 % 0 mm
22:40 -0.7 °C -3.8 °C 1028.3 hPa Calm     79 % 0 mm
22:45 -1 °C -4.2 °C 1028.3 hPa Calm     79 % 0 mm
22:50 -1.5 °C -4.4 °C 1028.3 hPa Calm     80 % 0 mm
22:55 -1 °C -4.2 °C 1028.3 hPa Calm     79 % 0 mm
23:00 -1.4 °C -4.4 °C 1028.3 hPa Calm     80 % 0 mm
23:05 -1.8 °C -4.4 °C 1028.3 hPa Calm     81 % 0 mm
23:10 -1.4 °C -4.4 °C 1028.3 hPa Calm     80 % 0 mm
23:15 -1.7 °C -4.6 °C 1028.7 hPa Calm     81 % 0 mm
23:20 -2.1 °C -5 °C 1028.3 hPa Calm     82 % 0 mm
23:25 -1.7 °C -4.6 °C 1028.7 hPa Calm     81 % 0 mm
23:30 -2 °C -4.7 °C 1028.3 hPa Calm     82 % 0 mm
23:35 -2.3 °C -5 °C 1028.7 hPa Calm     82 % 0 mm
23:40 -2 °C -4.7 °C 1028.3 hPa Calm     82 % 0 mm
23:45 -2.3 °C -4.9 °C 1028.7 hPa Calm     82 % 0 mm
23:50 -2.6 °C -5 °C 1028.7 hPa Calm     83 % 0 mm
23:55 -2.3 °C -4.9 °C 1028.7 hPa Calm     82 % 0 mm
Des Moines Weather and Climate
Compliments of Weather Underground - 4.5 mb

Script developed by  Jim McMurry - jmcmurry@mwt.net Adapted for the template by  Wim van der Kuil - Leuven-Template.eu

You find our weather info also at:

Weather Underground

Equipment we use:

Weather-station
Davis VP2 Plus

Weather-program
Davis Weatherlink.Com

Weather-server
iMac (Retina 4K, 21.5-inch, Late 2015)

Provider
Hostmonster.com

Davis VP2 Plus

Davis Weatherlink.Com

iMac (Retina 4K, 21.5-inch, Late 2015)

Hostmonster.com